Time;durP1;ratioP1;P1;durP2;ratioP2;P2;SDS_P1;SDS_P2;PMS_P1;PMS_P2;Temp;Humidity;BMP_temperature;BMP_pressure;BME280_temperature;BME280_humidity;BME280_pressure;Samples;Min_cycle;Max_cycle;Signal;HPM_P1;HPM_P2
2023/02/23 00:01:56;;;;;;;;;;;8.60;91.10;;;;;;5032594;28;19924;-79
2023/02/23 00:04:23;;;;;;;;;;;8.50;91.20;;;;;;5052475;28;19909;-79
2023/02/23 00:06:50;;;;;;;;;;;8.60;91.30;;;;;;5035859;28;19909;-79
2023/02/23 00:09:23;;;;;;;;;;;8.60;91.50;;;;;;5053465;28;20133;-79
2023/02/23 00:11:51;;;;;;;;;;;8.60;91.80;;;;;;5055425;28;19897;-80
2023/02/23 00:14:17;;;;;;;;;;;8.60;91.60;;;;;;5056856;28;19923;-80
2023/02/23 00:16:45;;;;;;;;;;;8.60;91.70;;;;;;5057424;28;19932;-80
2023/02/23 00:19:12;;;;;;;;;;;8.60;91.70;;;;;;5054371;28;19916;-80
2023/02/23 00:21:39;;;;;;;;;;;8.60;91.70;;;;;;5035957;28;19921;-79
2023/02/23 00:24:14;;;;;;;;;;;8.60;91.80;;;;;;5038417;28;19980;-80
2023/02/23 00:26:41;;;;;;;;;;;8.60;91.80;;;;;;5038741;28;19909;-79
2023/02/23 00:29:09;;;;;;;;;;;8.60;91.90;;;;;;5055393;28;19952;-80
2023/02/23 00:31:37;;;;;;;;;;;8.60;91.90;;;;;;5033709;28;19940;-80
2023/02/23 00:34:03;;;;;;;;;;;8.60;91.90;;;;;;5052591;28;19909;-80
2023/02/23 00:36:30;;;;;;;;;;;8.60;92.00;;;;;;5052683;28;19916;-80
2023/02/23 00:38:57;;;;;;;;;;;8.60;92.10;;;;;;5034107;28;19909;-80
2023/02/23 00:41:27;;;;;;;;;;;8.50;92.10;;;;;;5052470;28;19982;-80
2023/02/23 00:43:56;;;;;;;;;;;8.50;92.20;;;;;;5054664;28;19912;-80
2023/02/23 00:46:23;;;;;;;;;;;8.50;92.30;;;;;;5040583;28;19908;-81
2023/02/23 00:48:49;;;;;;;;;;;8.50;92.40;;;;;;5059149;28;19966;-80
2023/02/23 00:51:15;;;;;;;;;;;8.50;92.50;;;;;;5052335;28;19913;-80
2023/02/23 00:53:41;;;;;;;;;;;8.60;92.60;;;;;;5052607;28;19948;-80
2023/02/23 00:56:10;;;;;;;;;;;8.60;92.60;;;;;;5038419;28;19936;-79
2023/02/23 00:58:36;;;;;;;;;;;8.60;92.60;;;;;;5055755;28;19940;-80
2023/02/23 01:01:04;;;;;;;;;;;8.60;92.70;;;;;;5032309;28;19913;-79
2023/02/23 01:03:29;;;;;;;;;;;8.70;92.60;;;;;;5050613;28;19979;-79
2023/02/23 01:05:59;;;;;;;;;;;8.70;92.60;;;;;;5033484;28;19913;-80
2023/02/23 01:08:26;;;;;;;;;;;8.80;92.60;;;;;;5050558;28;19935;-79
2023/02/23 01:10:52;;;;;;;;;;;8.80;92.50;;;;;;5033308;28;19999;-80
2023/02/23 01:13:21;;;;;;;;;;;8.80;92.50;;;;;;5050289;28;19920;-80
2023/02/23 01:15:47;;;;;;;;;;;8.80;92.40;;;;;;5050991;28;19909;-80
2023/02/23 01:18:16;;;;;;;;;;;8.90;92.30;;;;;;5032635;28;19940;-80
2023/02/23 01:20:43;;;;;;;;;;;8.80;92.40;;;;;;5050855;28;19912;-80
2023/02/23 01:23:11;;;;;;;;;;;8.80;92.50;;;;;;5050346;28;19909;-80
2023/02/23 01:25:37;;;;;;;;;;;8.80;92.60;;;;;;5040703;28;20263;-80
2023/02/23 01:28:03;;;;;;;;;;;8.80;92.70;;;;;;5070660;28;19916;-81
2023/02/23 01:30:29;;;;;;;;;;;8.80;92.90;;;;;;5069849;28;19972;-80
2023/02/23 01:32:55;;;;;;;;;;;8.70;92.90;;;;;;5055902;28;20008;-80
2023/02/23 01:35:21;;;;;;;;;;;8.70;92.90;;;;;;5049725;28;20351;-80
2023/02/23 01:37:48;;;;;;;;;;;8.80;92.90;;;;;;5049743;28;19909;-80
2023/02/23 01:40:15;;;;;;;;;;;8.70;92.90;;;;;;5032302;28;19919;-80
2023/02/23 01:42:44;;;;;;;;;;;8.70;93.00;;;;;;5050721;28;20006;-80
2023/02/23 01:45:23;;;;;;;;;;;8.60;93.10;;;;;;5029923;28;19920;-78
2023/02/23 01:47:50;;;;;;;;;;;8.60;93.20;;;;;;5039448;28;19928;-81
2023/02/23 01:50:16;;;;;;;;;;;8.60;93.30;;;;;;5054983;28;19952;-79
2023/02/23 01:52:47;;;;;;;;;;;8.60;93.30;;;;;;5054067;28;19909;-79
2023/02/23 01:55:14;;;;;;;;;;;8.60;93.30;;;;;;5051663;28;19920;-79
2023/02/23 01:57:40;;;;;;;;;;;8.60;93.30;;;;;;5067085;28;19958;-80
2023/02/23 02:00:12;;;;;;;;;;;8.60;93.40;;;;;;5090848;28;19916;-79
2023/02/23 02:02:38;;;;;;;;;;;8.60;93.50;;;;;;5075420;28;19927;-78
2023/02/23 02:05:07;;;;;;;;;;;8.50;93.50;;;;;;5091945;28;19909;-79
2023/02/23 02:07:38;;;;;;;;;;;8.50;93.60;;;;;;5073956;28;19909;-80
2023/02/23 02:12:36;;;;;;;;;;;8.60;93.80;;;;;;5088775;28;19993;-79
2023/02/23 02:15:03;;;;;;;;;;;8.50;93.80;;;;;;5090157;28;19908;-79
2023/02/23 02:17:40;;;;;;;;;;;8.50;93.80;;;;;;5088610;28;19918;-78
2023/02/23 02:20:25;;;;;;;;;;;8.50;93.90;;;;;;5067288;28;19908;-79
2023/02/23 02:23:03;;;;;;;;;;;8.50;93.90;;;;;;5084135;28;19995;-78
2023/02/23 02:25:33;;;;;;;;;;;8.50;94.00;;;;;;5083817;28;19961;-79
2023/02/23 02:28:03;;;;;;;;;;;8.40;94.10;;;;;;5063199;28;19913;-80
2023/02/23 02:30:42;;;;;;;;;;;8.40;94.10;;;;;;5049665;28;19909;-79
2023/02/23 02:33:23;;;;;;;;;;;8.50;94.20;;;;;;5049440;28;19981;-79
2023/02/23 02:35:51;;;;;;;;;;;8.50;94.30;;;;;;5048188;28;19909;-80
2023/02/23 02:38:41;;;;;;;;;;;8.40;94.20;;;;;;5049648;28;20044;-80
2023/02/23 02:41:10;;;;;;;;;;;8.40;94.20;;;;;;5041581;28;19915;-80
2023/02/23 02:43:49;;;;;;;;;;;8.40;94.30;;;;;;5064490;28;19952;-81
2023/02/23 02:46:18;;;;;;;;;;;8.40;94.30;;;;;;5049797;28;19920;-80
2023/02/23 02:48:43;;;;;;;;;;;8.40;94.40;;;;;;5068377;28;19909;-79
2023/02/23 02:51:18;;;;;;;;;;;8.40;94.40;;;;;;5066105;28;19916;-80
2023/02/23 02:53:53;;;;;;;;;;;8.40;94.40;;;;;;5049391;28;19917;-80
2023/02/23 02:56:21;;;;;;;;;;;8.40;94.40;;;;;;5061411;28;19909;-79
2023/02/23 02:58:48;;;;;;;;;;;8.40;94.40;;;;;;5054765;28;19928;-79
2023/02/23 04:17:52;;;;;;;;;;;7.80;97.10;;;;;;5060565;28;19909;-78
2023/02/23 04:20:18;;;;;;;;;;;7.80;97.10;;;;;;5058172;28;20291;-78
2023/02/23 04:22:44;;;;;;;;;;;7.80;97.20;;;;;;5056964;28;20019;-77
2023/02/23 04:25:10;;;;;;;;;;;7.70;97.20;;;;;;5059583;28;19924;-78
2023/02/23 04:27:36;;;;;;;;;;;7.70;97.30;;;;;;5050025;28;19913;-78
2023/02/23 04:30:02;;;;;;;;;;;7.60;97.40;;;;;;5077774;28;19968;-78
2023/02/23 04:32:28;;;;;;;;;;;7.60;97.50;;;;;;5076405;28;20031;-78
2023/02/23 04:34:53;;;;;;;;;;;7.60;97.60;;;;;;5040363;28;20051;-79
2023/02/23 04:37:19;;;;;;;;;;;7.60;97.60;;;;;;5039638;28;20007;-79
2023/02/23 04:39:48;;;;;;;;;;;7.60;97.70;;;;;;5036076;28;19917;-79
2023/02/23 04:42:14;;;;;;;;;;;7.50;97.80;;;;;;5036101;28;20078;-79
2023/02/23 04:44:40;;;;;;;;;;;7.40;97.90;;;;;;5040188;28;20380;-76
2023/02/23 04:47:05;;;;;;;;;;;7.40;98.00;;;;;;5056130;28;20015;-77
2023/02/23 04:49:31;;;;;;;;;;;7.30;98.20;;;;;;5056269;28;19945;-76
2023/02/23 04:51:57;;;;;;;;;;;7.30;98.30;;;;;;5054879;28;19917;-77
2023/02/23 04:54:22;;;;;;;;;;;7.30;98.50;;;;;;5043759;28;19963;-77
2023/02/23 04:56:48;;;;;;;;;;;7.30;98.50;;;;;;5051178;28;20412;-77
2023/02/23 04:59:13;;;;;;;;;;;7.30;98.70;;;;;;5062789;28;19909;-78
2023/02/23 05:01:39;;;;;;;;;;;7.30;98.80;;;;;;5054845;28;19913;-77
2023/02/23 05:04:04;;;;;;;;;;;7.30;98.80;;;;;;5040023;28;19917;-77
2023/02/23 05:06:30;;;;;;;;;;;7.30;98.80;;;;;;5023654;28;19909;-77
2023/02/23 05:08:56;;;;;;;;;;;7.30;98.90;;;;;;5040211;28;19948;-77
2023/02/23 05:11:21;;;;;;;;;;;7.30;98.90;;;;;;5042579;28;19944;-76
2023/02/23 05:13:47;;;;;;;;;;;7.20;98.90;;;;;;5035386;28;19916;-77
2023/02/23 05:16:12;;;;;;;;;;;7.20;98.90;;;;;;5035716;28;19909;-76
2023/02/23 05:18:38;;;;;;;;;;;7.20;98.90;;;;;;5035787;28;19909;-76
2023/02/23 05:21:07;;;;;;;;;;;7.20;98.90;;;;;;5018126;28;19913;-77
2023/02/23 05:23:33;;;;;;;;;;;7.20;98.90;;;;;;5036668;28;19936;-77
2023/02/23 05:26:09;;;;;;;;;;;7.20;98.90;;;;;;5044776;28;20006;-77
2023/02/23 05:28:36;;;;;;;;;;;7.10;99.00;;;;;;5058653;28;19909;-75
2023/02/23 05:31:05;;;;;;;;;;;7.10;99.00;;;;;;5058951;28;19898;-77
2023/02/23 05:33:31;;;;;;;;;;;7.10;99.10;;;;;;5075115;28;19909;-77
2023/02/23 05:35:57;;;;;;;;;;;7.10;99.10;;;;;;5075284;28;19909;-77
2023/02/23 05:38:23;;;;;;;;;;;7.10;99.20;;;;;;5046036;28;19912;-77
2023/02/23 05:40:49;;;;;;;;;;;7.10;99.10;;;;;;5060349;28;19909;-77
2023/02/23 05:43:14;;;;;;;;;;;7.10;99.10;;;;;;5036835;28;19921;-77
2023/02/23 05:45:41;;;;;;;;;;;7.20;99.20;;;;;;5037610;28;19909;-78
2023/02/23 05:48:07;;;;;;;;;;;7.20;99.10;;;;;;5037524;28;19920;-77
2023/02/23 05:50:32;;;;;;;;;;;7.30;99.10;;;;;;5039146;28;20638;-76
2023/02/23 05:52:58;;;;;;;;;;;7.20;99.00;;;;;;5051448;28;20375;-77
2023/02/23 05:55:24;;;;;;;;;;;7.30;98.90;;;;;;5056743;28;19913;-78
2023/02/23 05:57:50;;;;;;;;;;;7.30;98.90;;;;;;5048254;28;20390;-77
2023/02/23 06:00:16;;;;;;;;;;;7.30;98.80;;;;;;5053926;28;20007;-77
2023/02/23 06:02:42;;;;;;;;;;;7.40;98.80;;;;;;5056959;28;19928;-77
2023/02/23 06:05:08;;;;;;;;;;;7.50;98.70;;;;;;5062117;28;20303;-77
2023/02/23 06:07:34;;;;;;;;;;;7.50;98.50;;;;;;5060918;28;19915;-77
2023/02/23 06:09:59;;;;;;;;;;;7.60;98.30;;;;;;5055001;28;19908;-77
2023/02/23 06:12:25;;;;;;;;;;;7.60;98.20;;;;;;5054414;28;19983;-78
2023/02/23 06:14:51;;;;;;;;;;;7.60;98.00;;;;;;5040079;28;19909;-77
2023/02/23 06:17:17;;;;;;;;;;;7.60;98.00;;;;;;5040148;28;19913;-77
2023/02/23 06:19:42;;;;;;;;;;;7.70;97.90;;;;;;5036878;28;19916;-78
2023/02/23 06:22:08;;;;;;;;;;;7.70;97.80;;;;;;5043385;28;20333;-77
2023/02/23 06:24:33;;;;;;;;;;;7.80;97.70;;;;;;5053890;28;19921;-77
2023/02/23 06:26:59;;;;;;;;;;;7.80;97.60;;;;;;5046075;28;19913;-77
2023/02/23 06:29:25;;;;;;;;;;;7.90;97.50;;;;;;5046167;28;19975;-76
2023/02/23 06:31:50;;;;;;;;;;;8.00;97.50;;;;;;5053922;28;19909;-76
2023/02/23 06:34:17;;;;;;;;;;;8.00;97.30;;;;;;5018813;28;19956;-76
2023/02/23 06:36:43;;;;;;;;;;;8.10;97.10;;;;;;5035495;28;20007;-77
2023/02/23 06:39:10;;;;;;;;;;;8.10;97.10;;;;;;5036696;28;20322;-78
2023/02/23 06:41:35;;;;;;;;;;;8.20;97.00;;;;;;5035430;28;20548;-77
2023/02/23 06:44:01;;;;;;;;;;;8.20;96.80;;;;;;5026382;28;19931;-78
2023/02/23 06:46:26;;;;;;;;;;;8.30;96.60;;;;;;5055247;28;19913;-79
2023/02/23 06:48:55;;;;;;;;;;;8.30;96.50;;;;;;5056434;28;19928;-78
2023/02/23 06:51:21;;;;;;;;;;;8.20;96.50;;;;;;5054887;28;20497;-76
2023/02/23 06:53:47;;;;;;;;;;;8.20;96.60;;;;;;5050663;28;19936;-78
2023/02/23 06:56:12;;;;;;;;;;;8.20;96.60;;;;;;5046642;28;19913;-78
2023/02/23 06:58:39;;;;;;;;;;;8.20;96.60;;;;;;5043635;28;19916;-77
2023/02/23 07:01:04;;;;;;;;;;;8.20;96.50;;;;;;5037384;28;20315;-78
2023/02/23 07:03:30;;;;;;;;;;;8.30;96.50;;;;;;5050342;28;19913;-77
2023/02/23 07:05:55;;;;;;;;;;;8.30;96.40;;;;;;5051997;28;20034;-77
2023/02/23 07:08:21;;;;;;;;;;;8.40;96.40;;;;;;5050691;28;19909;-77
2023/02/23 07:10:46;;;;;;;;;;;8.40;96.30;;;;;;5052674;28;19908;-77
2023/02/23 07:13:12;;;;;;;;;;;8.50;96.20;;;;;;5039197;28;19979;-77
2023/02/23 07:15:38;;;;;;;;;;;8.50;96.10;;;;;;5053733;28;19917;-77
2023/02/23 07:18:05;;;;;;;;;;;8.60;96.10;;;;;;5047657;28;19909;-76
2023/02/23 07:20:31;;;;;;;;;;;8.60;96.10;;;;;;5056384;28;19909;-77
2023/02/23 07:22:59;;;;;;;;;;;8.60;96.10;;;;;;5036763;28;19913;-77
2023/02/23 07:25:25;;;;;;;;;;;8.70;96.00;;;;;;5045225;28;20004;-78
2023/02/23 07:27:52;;;;;;;;;;;8.80;95.90;;;;;;5042096;28;19909;-78
2023/02/23 07:30:19;;;;;;;;;;;8.90;95.90;;;;;;5076404;28;19985;-77
2023/02/23 07:32:44;;;;;;;;;;;8.90;95.80;;;;;;5044151;28;20227;-78
2023/02/23 07:35:10;;;;;;;;;;;9.00;95.80;;;;;;5068306;28;20000;-78
2023/02/23 07:37:36;;;;;;;;;;;9.20;95.80;;;;;;5037806;28;19916;-78
2023/02/23 07:40:02;;;;;;;;;;;9.30;95.80;;;;;;5072126;28;20408;-78
2023/02/23 07:42:28;;;;;;;;;;;9.40;95.70;;;;;;5039904;28;20339;-77
2023/02/23 07:44:53;;;;;;;;;;;9.50;95.60;;;;;;5048662;28;19908;-78
2023/02/23 07:47:19;;;;;;;;;;;9.60;95.30;;;;;;5052967;28;19912;-78
2023/02/23 07:49:44;;;;;;;;;;;9.70;95.20;;;;;;5038204;28;19913;-78
2023/02/23 07:52:10;;;;;;;;;;;9.80;95.40;;;;;;5040489;28;19917;-78
2023/02/23 07:54:35;;;;;;;;;;;9.90;95.30;;;;;;5046410;28;19916;-77
2023/02/23 07:57:01;;;;;;;;;;;10.00;95.60;;;;;;5045606;28;19913;-77
2023/02/23 07:59:26;;;;;;;;;;;10.10;95.30;;;;;;5041020;28;19914;-77
2023/02/23 08:01:52;;;;;;;;;;;10.10;95.10;;;;;;5062356;28;19943;-77
2023/02/23 08:04:18;;;;;;;;;;;10.20;95.00;;;;;;5076439;28;19978;-78
2023/02/23 08:06:43;;;;;;;;;;;10.30;95.00;;;;;;5063437;28;19909;-77
2023/02/23 08:09:09;;;;;;;;;;;10.30;94.90;;;;;;5048988;28;19931;-78
2023/02/23 08:11:35;;;;;;;;;;;10.30;94.80;;;;;;5047514;28;19920;-77
2023/02/23 08:14:01;;;;;;;;;;;10.40;94.80;;;;;;5077664;28;19936;-77
2023/02/23 08:16:27;;;;;;;;;;;10.40;94.80;;;;;;5071483;28;19976;-79
2023/02/23 08:18:53;;;;;;;;;;;10.40;94.70;;;;;;5054690;28;20328;-77
2023/02/23 08:21:18;;;;;;;;;;;10.50;94.70;;;;;;5046172;28;19959;-78
2023/02/23 08:23:44;;;;;;;;;;;10.50;94.60;;;;;;5046143;28;19913;-78
2023/02/23 08:26:10;;;;;;;;;;;10.50;94.60;;;;;;5046933;28;19908;-78
2023/02/23 08:28:36;;;;;;;;;;;10.40;94.70;;;;;;5060393;28;19917;-78
2023/02/23 08:31:02;;;;;;;;;;;10.40;94.90;;;;;;5038521;28;19920;-78
2023/02/23 08:33:30;;;;;;;;;;;10.40;95.10;;;;;;5014065;28;19917;-77
2023/02/23 08:35:58;;;;;;;;;;;10.30;95.20;;;;;;5025840;28;20561;-77
2023/02/23 08:38:23;;;;;;;;;;;10.40;95.20;;;;;;5043714;28;20255;-78
2023/02/23 08:40:49;;;;;;;;;;;10.40;95.20;;;;;;5037325;28;19921;-77
2023/02/23 08:43:14;;;;;;;;;;;10.40;95.10;;;;;;5037208;28;19917;-78
2023/02/23 08:45:40;;;;;;;;;;;10.50;95.10;;;;;;5043928;28;20015;-77
2023/02/23 08:48:06;;;;;;;;;;;10.60;95.10;;;;;;5050015;28;19992;-78
2023/02/23 08:50:32;;;;;;;;;;;10.80;95.00;;;;;;5043994;28;19909;-77
2023/02/23 08:52:57;;;;;;;;;;;10.90;94.60;;;;;;5058762;28;20026;-77
2023/02/23 08:55:23;;;;;;;;;;;11.00;94.30;;;;;;5047020;28;20260;-78
2023/02/23 08:57:48;;;;;;;;;;;11.10;93.80;;;;;;5043262;28;20016;-77
2023/02/23 09:00:15;;;;;;;;;;;11.10;93.80;;;;;;5073694;28;19909;-78
2023/02/23 09:02:41;;;;;;;;;;;11.10;93.90;;;;;;5058796;28;19913;-77
2023/02/23 09:05:08;;;;;;;;;;;11.10;94.00;;;;;;5042250;28;20378;-78
2023/02/23 09:07:34;;;;;;;;;;;11.20;93.90;;;;;;5041965;28;19909;-78
2023/02/23 09:09:59;;;;;;;;;;;11.20;93.90;;;;;;5044678;28;20011;-78
2023/02/23 09:12:25;;;;;;;;;;;11.30;93.80;;;;;;5052262;28;19909;-78
2023/02/23 09:14:52;;;;;;;;;;;11.40;93.80;;;;;;5065529;28;19909;-78
2023/02/23 09:17:18;;;;;;;;;;;11.40;93.50;;;;;;5045457;28;20349;-78
2023/02/23 09:19:44;;;;;;;;;;;11.50;93.20;;;;;;5042811;28;19935;-77
2023/02/23 09:22:09;;;;;;;;;;;11.60;93.30;;;;;;5044994;28;20379;-77
2023/02/23 09:24:35;;;;;;;;;;;11.70;93.10;;;;;;5055916;28;19920;-78
2023/02/23 09:27:00;;;;;;;;;;;11.80;93.00;;;;;;5047169;28;19908;-78
2023/02/23 09:29:26;;;;;;;;;;;11.80;92.00;;;;;;5058144;28;19947;-78
2023/02/23 09:31:51;;;;;;;;;;;11.80;92.20;;;;;;5039386;28;19921;-78
2023/02/23 09:34:18;;;;;;;;;;;11.80;92.40;;;;;;5050068;28;19955;-77
2023/02/23 09:36:43;;;;;;;;;;;11.70;92.10;;;;;;5066174;28;19919;-78
2023/02/23 09:39:09;;;;;;;;;;;11.70;92.30;;;;;;5057193;28;20032;-77
2023/02/23 09:41:35;;;;;;;;;;;11.60;92.30;;;;;;5054869;28;20388;-78
2023/02/23 09:44:14;;;;;;;;;;;11.60;92.50;;;;;;5064961;28;19980;-78
2023/02/23 09:46:58;;;;;;;;;;;11.70;92.30;;;;;;5043368;28;19916;-78
2023/02/23 09:49:26;;;;;;;;;;;11.60;92.40;;;;;;5047553;28;20026;-78
2023/02/23 09:51:56;;;;;;;;;;;11.60;92.60;;;;;;5046428;28;19970;-77
2023/02/23 09:54:23;;;;;;;;;;;11.70;93.10;;;;;;5042661;28;20380;-79
2023/02/23 09:56:50;;;;;;;;;;;11.80;92.60;;;;;;5050397;28;19973;-78
2023/02/23 09:59:19;;;;;;;;;;;12.00;92.50;;;;;;5047434;28;19969;-78
2023/02/23 10:01:51;;;;;;;;;;;12.10;91.90;;;;;;5075771;28;19971;-78
2023/02/23 10:04:20;;;;;;;;;;;12.30;91.70;;;;;;5046080;28;20380;-78
2023/02/23 10:06:49;;;;;;;;;;;12.40;91.50;;;;;;5054508;28;20342;-78
2023/02/23 10:09:18;;;;;;;;;;;12.30;90.90;;;;;;5062055;28;19908;-78
2023/02/23 10:11:43;;;;;;;;;;;12.30;90.90;;;;;;5040045;28;19921;-78
2023/02/23 10:14:28;;;;;;;;;;;12.20;91.00;;;;;;5035725;28;19909;-78
2023/02/23 10:17:02;;;;;;;;;;;12.20;91.20;;;;;;5048423;28;19917;-77
2023/02/23 10:19:41;;;;;;;;;;;12.30;91.00;;;;;;5052828;28;19909;-77
2023/02/23 10:22:07;;;;;;;;;;;12.40;91.10;;;;;;5036558;28;20339;-77
2023/02/23 10:24:38;;;;;;;;;;;12.60;90.50;;;;;;5054669;28;19908;-77
2023/02/23 10:27:09;;;;;;;;;;;12.70;90.00;;;;;;5034471;28;19909;-77
2023/02/23 10:29:37;;;;;;;;;;;12.70;90.00;;;;;;5055727;28;19913;-78
2023/02/23 10:32:23;;;;;;;;;;;12.70;89.70;;;;;;5052287;28;19909;-77
2023/02/23 10:34:52;;;;;;;;;;;12.80;89.20;;;;;;5045281;28;19913;-76
2023/02/23 10:37:18;;;;;;;;;;;12.80;90.00;;;;;;5050062;28;19932;-77
2023/02/23 10:39:44;;;;;;;;;;;12.90;88.60;;;;;;5058766;28;19913;-77
2023/02/23 10:42:14;;;;;;;;;;;12.90;88.10;;;;;;5049676;28;19928;-78
2023/02/23 10:44:42;;;;;;;;;;;12.90;89.00;;;;;;5042430;28;19964;-77
2023/02/23 10:47:13;;;;;;;;;;;13.00;89.30;;;;;;5031655;28;19962;-77
2023/02/23 10:49:46;;;;;;;;;;;12.90;89.00;;;;;;5052421;28;19913;-78
2023/02/23 10:52:13;;;;;;;;;;;12.80;88.00;;;;;;5060593;28;19917;-77
2023/02/23 10:54:46;;;;;;;;;;;12.60;88.70;;;;;;5064228;28;19920;-77
2023/02/23 10:57:32;;;;;;;;;;;12.50;89.70;;;;;;5057340;28;19909;-77
2023/02/23 10:59:59;;;;;;;;;;;12.40;89.80;;;;;;5059574;28;19909;-77
2023/02/23 11:02:25;;;;;;;;;;;12.20;90.30;;;;;;5057431;28;20031;-78
2023/02/23 11:04:52;;;;;;;;;;;12.00;90.90;;;;;;5057285;28;19915;-78
2023/02/23 11:07:22;;;;;;;;;;;12.00;91.10;;;;;;5056631;28;19908;-77
2023/02/23 11:09:50;;;;;;;;;;;12.00;90.80;;;;;;5056090;28;19935;-78
2023/02/23 11:12:23;;;;;;;;;;;12.10;91.00;;;;;;5053574;28;20438;-77
2023/02/23 11:14:50;;;;;;;;;;;12.20;91.00;;;;;;5034398;28;19917;-78
2023/02/23 11:17:35;;;;;;;;;;;12.30;90.80;;;;;;5034505;28;20007;-78
2023/02/23 11:20:04;;;;;;;;;;;12.40;90.40;;;;;;5021558;28;19953;-79
2023/02/23 11:22:30;;;;;;;;;;;12.60;90.10;;;;;;5023332;28;19955;-77
2023/02/23 11:24:56;;;;;;;;;;;12.80;90.00;;;;;;5044487;28;20374;-77
2023/02/23 11:27:23;;;;;;;;;;;13.00;89.30;;;;;;5054974;28;19920;-78
2023/02/23 11:29:51;;;;;;;;;;;13.20;88.50;;;;;;5040640;28;20023;-78
2023/02/23 11:32:19;;;;;;;;;;;13.40;86.30;;;;;;5043158;28;19921;-77
2023/02/23 11:34:47;;;;;;;;;;;13.50;85.10;;;;;;5054650;28;19912;-78
2023/02/23 11:37:13;;;;;;;;;;;13.70;85.10;;;;;;5060597;28;19916;-77
2023/02/23 11:39:58;;;;;;;;;;;13.80;83.30;;;;;;5051658;28;19913;-78
2023/02/23 11:42:31;;;;;;;;;;;13.70;83.20;;;;;;5042987;28;19917;-76
2023/02/23 11:45:05;;;;;;;;;;;13.60;82.50;;;;;;5049495;28;19913;-78
2023/02/23 11:47:31;;;;;;;;;;;13.40;83.10;;;;;;5057815;28;19916;-77
2023/02/23 11:49:57;;;;;;;;;;;13.20;83.70;;;;;;5057988;28;19909;-78
2023/02/23 11:52:24;;;;;;;;;;;13.10;85.50;;;;;;5057174;28;19924;-78
2023/02/23 11:55:10;;;;;;;;;;;13.10;85.50;;;;;;5118368;22;19929;-80
2023/02/23 11:57:36;;;;;;;;;;;13.20;84.90;;;;;;5025336;28;19924;-81
2023/02/23 12:00:08;;;;;;;;;;;13.20;84.40;;;;;;5049286;28;19948;-80
2023/02/23 12:02:48;;;;;;;;;;;13.30;85.00;;;;;;5063088;28;19923;-80
2023/02/23 12:05:16;;;;;;;;;;;13.30;84.20;;;;;;5045819;28;19917;-80
2023/02/23 12:07:54;;;;;;;;;;;13.30;84.60;;;;;;5020516;28;19961;-81
2023/02/23 12:10:40;;;;;;;;;;;13.30;84.60;;;;;;5021063;28;19909;-81
2023/02/23 12:13:06;;;;;;;;;;;13.40;83.80;;;;;;5023945;28;19920;-81
2023/02/23 12:15:40;;;;;;;;;;;13.50;83.90;;;;;;5020684;28;19913;-81
2023/02/23 12:18:10;;;;;;;;;;;13.70;82.30;;;;;;5022421;28;19971;-81
2023/02/23 12:20:41;;;;;;;;;;;13.80;82.70;;;;;;5021641;28;19910;-81
2023/02/23 12:23:16;;;;;;;;;;;13.90;81.20;;;;;;5020949;28;19914;-80
2023/02/23 12:26:02;;;;;;;;;;;13.90;81.60;;;;;;5026531;28;19913;-80
2023/02/23 12:28:34;;;;;;;;;;;14.00;81.70;;;;;;5026936;28;19933;-80
2023/02/23 12:30:59;;;;;;;;;;;14.10;80.10;;;;;;5023011;28;19917;-80
2023/02/23 12:33:33;;;;;;;;;;;14.30;79.30;;;;;;5023897;28;19910;-81
2023/02/23 12:35:58;;;;;;;;;;;14.40;79.30;;;;;;5036362;28;19914;-82
2023/02/23 12:38:42;;;;;;;;;;;14.50;78.70;;;;;;5022346;28;19967;-80
2023/02/23 12:41:31;;;;;;;;;;;14.60;78.60;;;;;;5022007;28;19991;-80
2023/02/23 12:44:06;;;;;;;;;;;14.60;77.10;;;;;;5016594;28;19932;-82
2023/02/23 12:46:42;;;;;;;;;;;14.60;76.80;;;;;;5022877;28;19909;-82
2023/02/23 12:49:26;;;;;;;;;;;14.60;76.90;;;;;;5020485;28;20303;-81
2023/02/23 12:51:54;;;;;;;;;;;14.60;76.50;;;;;;5022207;28;19914;-81
2023/02/23 12:54:20;;;;;;;;;;;14.50;77.00;;;;;;5022497;28;19917;-81
2023/02/23 12:56:57;;;;;;;;;;;14.40;77.10;;;;;;5020806;28;19919;-81
2023/02/23 12:59:24;;;;;;;;;;;14.30;78.30;;;;;;5022452;28;19913;-81
2023/02/23 13:02:00;;;;;;;;;;;14.20;78.10;;;;;;5019419;28;19949;-82
2023/02/23 13:04:29;;;;;;;;;;;14.10;79.00;;;;;;5020974;28;20015;-80
2023/02/23 13:06:58;;;;;;;;;;;14.10;79.80;;;;;;5022349;28;19995;-81
2023/02/23 13:09:32;;;;;;;;;;;14.00;80.50;;;;;;5021659;28;19913;-82
2023/02/23 13:12:13;;;;;;;;;;;14.00;79.70;;;;;;5021709;28;19979;-82
2023/02/23 13:14:54;;;;;;;;;;;13.90;80.00;;;;;;5020750;28;19971;-81
2023/02/23 13:17:29;;;;;;;;;;;13.80;80.40;;;;;;5020536;28;19914;-82
2023/02/23 13:20:00;;;;;;;;;;;13.60;81.60;;;;;;5019367;28;19909;-80
2023/02/23 13:22:35;;;;;;;;;;;13.50;82.00;;;;;;5019682;28;19956;-80
2023/02/23 13:25:02;;;;;;;;;;;13.40;83.00;;;;;;5018581;28;20249;-80
2023/02/23 13:27:41;;;;;;;;;;;13.40;82.40;;;;;;5018023;28;19921;-81
2023/02/23 13:30:10;;;;;;;;;;;13.30;82.60;;;;;;5012704;28;19916;-78
2023/02/23 13:32:38;;;;;;;;;;;;;;;;;;5024621;28;19914;-82
2023/02/23 13:35:04;;;;;;;;;;;;;;;;;;5025824;28;19924;-81
2023/02/23 13:37:33;;;;;;;;;;;;;;;;;;5018077;28;20426;-80
2023/02/23 13:39:59;;;;;;;;;;;;;;;;;;5027115;28;19909;-81
2023/02/23 13:42:26;;;;;;;;;;;;;;;;;;5036789;28;19920;-82
2023/02/23 13:44:52;;;;;;;;;;;;;;;;;;5021805;28;19909;-80
2023/02/23 13:47:18;;;;;;;;;;;;;;;;;;5029358;28;20494;-82
2023/02/23 13:49:45;;;;;;;;;;;;;;;;;;5029833;28;19917;-82
2023/02/23 13:52:11;;;;;;;;;;;;;;;;;;5022741;28;19916;-82
2023/02/23 13:54:37;;;;;;;;;;;;;;;;;;5023891;28;19918;-81
2023/02/23 13:57:04;;;;;;;;;;;;;;;;;;5032619;28;19920;-81
2023/02/23 13:59:32;;;;;;;;;;;;;;;;;;5030139;28;19914;-82
2023/02/23 14:01:58;;;;;;;;;;;;;;;;;;5036912;28;19924;-82
2023/02/23 14:04:30;;;;;;;;;;;;;;;;;;5028922;28;20331;-80
2023/02/23 14:06:56;;;;;;;;;;;;;;;;;;5043314;28;20458;-81
2023/02/23 14:09:22;;;;;;;;;;;;;;;;;;5033224;28;20031;-83
2023/02/23 14:11:49;;;;;;;;;;;;;;;;;;5052156;28;19922;-84
2023/02/23 14:14:15;;;;;;;;;;;;;;;;;;5032533;28;19917;-84
2023/02/23 14:16:42;;;;;;;;;;;;;;;;;;5023445;28;19952;-85
2023/02/23 14:19:08;;;;;;;;;;;;;;;;;;5023816;28;19956;-84
2023/02/23 14:21:42;;;;;;;;;;;13.60;78.70;;;;;;5026552;28;19914;-82
2023/02/23 14:24:11;;;;;;;;;;;13.60;79.30;;;;;;5026505;28;19917;-81
2023/02/23 14:26:38;;;;;;;;;;;13.60;79.00;;;;;;5025336;28;19910;-81
2023/02/23 14:29:16;;;;;;;;;;;13.60;79.40;;;;;;5024556;28;19914;-83
2023/02/23 14:31:58;;;;;;;;;;;13.60;79.70;;;;;;5038899;28;19909;-79
2023/02/23 14:34:42;;;;;;;;;;;13.60;79.10;;;;;;5026646;28;19918;-81
2023/02/23 14:37:33;;;;;;;;;;;13.70;78.90;;;;;;5025153;28;19909;-82
2023/02/23 14:40:03;;;;;;;;;;;13.70;79.20;;;;;;5022963;28;20055;-81
2023/02/23 14:42:28;;;;;;;;;;;13.70;78.80;;;;;;5019659;28;20000;-83
2023/02/23 14:44:55;;;;;;;;;;;13.80;78.00;;;;;;5017520;28;19937;-84
2023/02/23 14:47:22;;;;;;;;;;;13.70;77.60;;;;;;5022708;28;19917;-83
2023/02/23 14:49:50;;;;;;;;;;;13.50;78.40;;;;;;5027731;28;19925;-80
2023/02/23 14:52:23;;;;;;;;;;;13.30;79.20;;;;;;5027045;28;19918;-84
2023/02/23 14:54:50;;;;;;;;;;;13.10;79.30;;;;;;5025614;28;20391;-84
2023/02/23 14:57:20;;;;;;;;;;;12.90;79.90;;;;;;5027250;28;20020;-85
2023/02/23 15:00:06;;;;;;;;;;;12.80;80.70;;;;;;5028381;28;19993;-83
2023/02/23 15:02:31;;;;;;;;;;;12.70;81.00;;;;;;5027190;28;19914;-83
2023/02/23 15:04:57;;;;;;;;;;;12.60;81.00;;;;;;5031187;28;19952;-84
2023/02/23 15:07:50;;;;;;;;;;;12.50;81.30;;;;;;5035535;28;19913;-83
2023/02/23 15:10:35;;;;;;;;;;;12.40;81.80;;;;;;5035126;28;19897;-84
2023/02/23 15:13:27;;;;;;;;;;;12.30;82.40;;;;;;5036026;28;19956;-83
2023/02/23 15:15:53;;;;;;;;;;;12.20;83.00;;;;;;5034293;28;19913;-84
2023/02/23 15:18:45;;;;;;;;;;;12.10;83.30;;;;;;5035412;28;19921;-83
2023/02/23 15:21:12;;;;;;;;;;;12.10;84.00;;;;;;5024778;28;19910;-83
2023/02/23 15:23:38;;;;;;;;;;;12.10;84.40;;;;;;5029545;28;19914;-83
2023/02/23 15:26:17;;;;;;;;;;;12.00;84.60;;;;;;5032418;28;20084;-84
2023/02/23 15:28:44;;;;;;;;;;;12.00;84.90;;;;;;5032859;28;19951;-84
2023/02/23 15:31:11;;;;;;;;;;;12.00;85.00;;;;;;5034286;28;19917;-83
2023/02/23 15:33:36;;;;;;;;;;;11.90;85.20;;;;;;5030664;28;19984;-82
2023/02/23 15:36:02;;;;;;;;;;;11.90;85.50;;;;;;5031896;28;19913;-84
2023/02/23 15:38:31;;;;;;;;;;;11.90;85.90;;;;;;5034768;28;19910;-84
2023/02/23 15:40:59;;;;;;;;;;;11.80;86.00;;;;;;5028165;28;19920;-83
2023/02/23 15:43:28;;;;;;;;;;;11.80;86.40;;;;;;5028323;28;19925;-84
2023/02/23 15:45:53;;;;;;;;;;;11.80;86.90;;;;;;5027124;28;19925;-84
2023/02/23 15:48:21;;;;;;;;;;;11.80;87.40;;;;;;5028192;28;20376;-83
2023/02/23 15:50:51;;;;;;;;;;;11.80;88.00;;;;;;5024691;28;19914;-85
2023/02/23 15:53:22;;;;;;;;;;;11.80;88.70;;;;;;5025681;28;19921;-83
2023/02/23 15:55:48;;;;;;;;;;;11.80;89.40;;;;;;5040102;28;19917;-82
2023/02/23 15:58:16;;;;;;;;;;;11.70;89.60;;;;;;5047830;28;19935;-83
2023/02/23 16:00:43;;;;;;;;;;;11.70;90.20;;;;;;5048082;28;19965;-84